createdAt,value
2022-10-11T00:01:14.965Z,3.70
2022-10-11T00:03:41.140Z,4.20
2022-10-11T00:06:09.131Z,3.70
2022-10-11T00:08:35.612Z,4.32
2022-10-11T00:11:07.230Z,3.65
2022-10-11T00:13:33.588Z,3.80
2022-10-11T00:16:00.005Z,3.83
2022-10-11T00:18:26.463Z,3.50
2022-10-11T00:21:07.766Z,3.70
2022-10-11T00:23:34.129Z,3.55
2022-10-11T00:26:02.293Z,3.65
2022-10-11T00:28:29.187Z,4.90
2022-10-11T00:30:55.487Z,3.60
2022-10-11T00:33:21.906Z,3.28
2022-10-11T00:35:48.910Z,3.28
2022-10-11T00:38:15.363Z,3.60
2022-10-11T00:40:41.521Z,3.30
2022-10-11T00:43:18.354Z,3.55
2022-10-11T00:45:56.265Z,3.15
2022-10-11T00:48:44.582Z,3.10
2022-10-11T00:51:20.731Z,3.53
2022-10-11T00:53:49.516Z,3.20
2022-10-11T00:56:27.869Z,4.70
2022-10-11T00:58:56.476Z,3.35
2022-10-11T01:01:22.824Z,3.72
2022-10-11T01:03:48.951Z,3.38
2022-10-11T01:06:15.104Z,3.75
2022-10-11T01:08:41.978Z,3.72
2022-10-11T01:11:14.721Z,3.47
2022-10-11T01:13:54.636Z,3.45
2022-10-11T01:16:31.367Z,3.58
2022-10-11T01:19:12.600Z,4.07
2022-10-11T01:22:03.703Z,3.58
2022-10-11T01:24:57.517Z,3.63
2022-10-11T01:27:49.985Z,4.13
2022-10-11T01:30:24.402Z,3.75
2022-10-11T01:33:16.160Z,3.97
2022-10-11T01:35:49.945Z,4.15
2022-10-11T01:38:33.029Z,3.38
2022-10-11T01:41:06.175Z,3.80
2022-10-11T01:43:35.110Z,3.58
2022-10-11T01:46:04.296Z,3.97
2022-10-11T01:48:30.582Z,3.67
2022-10-11T01:50:58.804Z,3.63
2022-10-11T01:53:42.517Z,4.10
2022-10-11T01:56:38.406Z,3.45
2022-10-11T01:59:24.430Z,3.70
2022-10-11T02:02:07.579Z,3.13
2022-10-11T02:04:44.963Z,3.45
2022-10-11T02:07:31.343Z,3.47
2022-10-11T02:10:14.681Z,3.60
2022-10-11T02:12:48.972Z,4.53
2022-10-11T02:15:17.494Z,3.70
2022-10-11T02:17:50.039Z,3.55
2022-10-11T02:20:21.910Z,4.05
2022-10-11T02:22:51.770Z,4.10
2022-10-11T02:25:24.777Z,3.90
2022-10-11T02:27:54.789Z,3.60
2022-10-11T02:30:20.893Z,3.83
2022-10-11T02:32:48.708Z,3.53
2022-10-11T02:35:15.325Z,3.50
2022-10-11T02:38:05.975Z,5.35
2022-10-11T02:40:44.594Z,3.97
2022-10-11T02:43:33.008Z,3.95
2022-10-11T02:46:01.631Z,3.67
2022-10-11T02:48:29.463Z,3.67
2022-10-11T02:50:57.237Z,3.90
2022-10-11T02:53:24.783Z,5.10
2022-10-11T02:55:52.891Z,3.90
2022-10-11T02:58:19.386Z,3.80
2022-10-11T03:00:45.770Z,4.97
2022-10-11T03:03:12.110Z,4.03
2022-10-11T03:05:41.524Z,3.85
2022-10-11T03:08:08.976Z,3.83
2022-10-11T03:10:35.250Z,5.03
2022-10-11T03:13:01.509Z,3.92
2022-10-11T03:15:27.618Z,3.60
2022-10-11T03:17:54.078Z,4.18
2022-10-11T03:20:20.348Z,4.63
2022-10-11T03:22:46.451Z,4.00
2022-10-11T03:25:12.629Z,4.57
2022-10-11T03:27:38.722Z,4.57
2022-10-11T03:30:05.461Z,3.88
2022-10-11T03:32:31.602Z,3.85
2022-10-11T03:34:57.871Z,4.75
2022-10-11T03:37:23.989Z,4.18
2022-10-11T03:39:50.393Z,4.60
2022-10-11T03:42:16.998Z,4.57
2022-10-11T03:44:43.154Z,4.95
2022-10-11T03:47:09.942Z,3.92
2022-10-11T03:49:39.875Z,4.10
2022-10-11T03:52:08.831Z,4.35
2022-10-11T03:54:34.949Z,4.22
2022-10-11T03:57:01.062Z,4.57
2022-10-11T03:59:27.173Z,5.43
2022-10-11T04:01:53.360Z,5.28
2022-10-11T04:04:19.520Z,6.25
2022-10-11T04:06:45.624Z,4.97
2022-10-11T04:09:11.763Z,5.25
2022-10-11T04:11:37.871Z,5.70
2022-10-11T04:14:04.009Z,4.68
2022-10-11T04:16:30.125Z,5.88
2022-10-11T04:18:56.235Z,5.50
2022-10-11T04:21:22.380Z,5.30
2022-10-11T04:23:48.492Z,5.22
2022-10-11T04:26:14.589Z,5.50
2022-10-11T04:28:40.803Z,5.38
2022-10-11T04:31:08.019Z,5.38
2022-10-11T04:33:34.353Z,4.95
2022-10-11T04:36:00.578Z,5.45
2022-10-11T04:38:26.685Z,5.50
2022-10-11T04:40:52.783Z,6.05
2022-10-11T04:43:19.125Z,7.05
2022-10-11T04:45:45.329Z,5.93
2022-10-11T04:48:11.522Z,5.55
2022-10-11T04:50:37.722Z,5.50
2022-10-11T04:53:06.990Z,5.95
2022-10-11T04:55:33.118Z,5.82
2022-10-11T04:57:59.206Z,5.80
2022-10-11T05:00:25.314Z,5.82
2022-10-11T05:02:53.017Z,6.78
2022-10-11T05:05:19.137Z,6.07
2022-10-11T05:07:45.248Z,6.72
2022-10-11T05:10:11.759Z,5.28
2022-10-11T05:12:40.647Z,6.55
2022-10-11T05:15:07.494Z,6.03
2022-10-11T05:17:33.830Z,5.78
2022-10-11T05:19:59.943Z,6.63
2022-10-11T05:22:26.078Z,6.38
2022-10-11T05:24:52.190Z,6.25
2022-10-11T05:27:18.300Z,6.28
2022-10-11T05:29:44.455Z,6.60
2022-10-11T05:32:10.554Z,6.85
2022-10-11T05:34:36.678Z,7.47
2022-10-11T05:37:02.973Z,7.45
2022-10-11T05:39:29.187Z,8.73
2022-10-11T05:41:55.770Z,9.02
2022-10-11T05:44:21.892Z,9.35
2022-10-11T05:46:48.007Z,9.85
2022-10-11T05:49:14.110Z,9.98
2022-10-11T05:51:40.222Z,10.15
2022-10-11T05:54:06.346Z,10.98
2022-10-11T05:56:32.452Z,10.82
2022-10-11T05:59:02.222Z,11.50
2022-10-11T06:01:28.781Z,11.20
2022-10-11T06:03:55.932Z,11.52
2022-10-11T06:06:22.214Z,11.13
2022-10-11T06:08:48.618Z,11.38
2022-10-11T06:11:17.896Z,11.35
2022-10-11T06:13:44.544Z,11.77
2022-10-11T06:16:11.124Z,11.35
2022-10-11T06:18:37.235Z,11.30
2022-10-11T06:21:03.982Z,10.43
2022-10-11T06:23:30.097Z,10.80
2022-10-11T06:26:06.101Z,11.15
2022-10-11T06:28:33.916Z,10.18
2022-10-11T06:31:01.233Z,10.82
2022-10-11T06:33:27.415Z,10.77
2022-10-11T06:36:01.852Z,11.20
2022-10-11T06:38:28.297Z,11.33
2022-10-11T06:40:54.504Z,10.63
2022-10-11T06:43:21.960Z,11.02
2022-10-11T06:45:48.403Z,12.02
2022-10-11T06:48:14.885Z,9.80
2022-10-11T06:50:59.094Z,10.68
2022-10-11T06:53:26.507Z,10.18
2022-10-11T06:55:52.616Z,9.57
2022-10-11T06:58:19.186Z,10.10
2022-10-11T07:00:45.327Z,10.43
2022-10-11T07:03:11.498Z,9.15
2022-10-11T07:05:37.612Z,9.52
2022-10-11T07:08:03.827Z,8.70
2022-10-11T07:10:29.935Z,8.90
2022-10-11T07:12:56.059Z,8.80
2022-10-11T07:15:22.373Z,8.13
2022-10-11T07:17:48.478Z,8.45
2022-10-11T07:20:14.614Z,7.95
2022-10-11T07:22:40.734Z,8.07
2022-10-11T07:25:07.277Z,7.60
2022-10-11T07:27:33.394Z,7.30
2022-10-11T07:29:59.507Z,8.20
2022-10-11T07:32:25.661Z,8.82
2022-10-11T07:34:51.918Z,8.43
2022-10-11T07:37:18.029Z,9.30
2022-10-11T07:39:44.159Z,7.80
2022-10-11T07:42:10.273Z,7.68
2022-10-11T07:44:36.706Z,7.85
2022-10-11T07:47:04.165Z,8.30
2022-10-11T07:49:31.958Z,7.53
2022-10-11T07:51:58.066Z,8.70
2022-10-11T07:54:24.201Z,7.65
2022-10-11T07:56:50.299Z,8.25
2022-10-11T07:59:16.440Z,7.75
2022-10-11T08:01:42.626Z,6.55
2022-10-11T08:04:08.770Z,7.03
2022-10-11T08:06:36.631Z,6.80
2022-10-11T08:09:03.521Z,6.45
2022-10-11T08:11:37.922Z,6.20
2022-10-11T08:14:09.122Z,6.53
2022-10-11T08:16:36.762Z,6.72
2022-10-11T08:19:03.400Z,5.93
2022-10-11T08:21:30.442Z,5.63
2022-10-11T08:23:56.766Z,6.78
2022-10-11T08:26:22.866Z,7.07
2022-10-11T08:28:49.126Z,6.25
2022-10-11T08:31:16.069Z,6.20
2022-10-11T08:33:42.322Z,5.72
2022-10-11T08:36:09.581Z,6.28
2022-10-11T08:38:37.212Z,6.10
2022-10-11T08:41:03.993Z,5.88
2022-10-11T08:43:48.428Z,5.63
2022-10-11T08:46:15.783Z,6.18
2022-10-11T08:48:45.744Z,5.80
2022-10-11T08:51:25.415Z,6.47
2022-10-11T08:54:04.720Z,6.22
2022-10-11T08:56:36.906Z,6.30
2022-10-11T08:59:15.815Z,5.75
2022-10-11T09:01:49.794Z,6.25
2022-10-11T09:04:18.042Z,5.82
2022-10-11T09:07:18.011Z,5.70
2022-10-11T09:10:03.543Z,5.70
2022-10-11T09:12:57.944Z,5.32
2022-10-11T09:15:40.353Z,5.15
2022-10-11T09:18:34.375Z,4.78
2022-10-11T09:21:12.757Z,6.03
2022-10-11T09:24:24.586Z,5.35
2022-10-11T09:27:19.625Z,6.88
2022-10-11T09:30:00.127Z,5.22
2022-10-11T09:32:31.185Z,4.70
2022-10-11T16:13:19.411Z,3.33
2022-10-11T16:15:46.774Z,4.10
2022-10-11T16:18:15.364Z,3.60
2022-10-11T16:20:44.876Z,3.55
2022-10-11T16:23:12.192Z,5.57
2022-10-11T16:25:39.208Z,4.93
2022-10-11T16:28:08.048Z,5.05
2022-10-11T16:30:35.289Z,9.32
2022-10-11T16:33:01.457Z,8.32
2022-10-11T16:35:32.279Z,4.57
2022-10-11T16:37:58.798Z,5.10
2022-10-11T16:40:26.740Z,5.95
2022-10-11T16:42:52.844Z,8.65
2022-10-11T16:45:18.982Z,5.45
2022-10-11T16:47:45.349Z,5.20
2022-10-11T16:50:11.760Z,4.97
2022-10-11T16:52:37.880Z,5.15
2022-10-11T16:55:04.304Z,7.38
2022-10-11T16:57:30.513Z,6.25
2022-10-11T16:59:56.641Z,6.20
2022-10-11T17:02:28.749Z,6.45
2022-10-11T17:04:57.652Z,6.38
2022-10-11T17:07:23.826Z,5.63
2022-10-11T17:09:50.102Z,4.85
2022-10-11T17:12:18.876Z,6.00
2022-10-11T17:14:45.041Z,5.80
2022-10-11T17:17:12.126Z,5.32
2022-10-11T17:19:45.032Z,5.55
2022-10-11T17:22:13.044Z,5.07
2022-10-11T17:24:39.370Z,5.43
2022-10-11T17:27:06.103Z,4.97
2022-10-11T17:29:32.717Z,5.60
2022-10-11T17:31:58.911Z,6.18
2022-10-11T17:34:25.503Z,5.95
2022-10-11T17:36:51.723Z,5.40
2022-10-11T17:39:20.858Z,6.47
2022-10-11T17:41:47.762Z,6.10
2022-10-11T17:44:14.587Z,5.28
2022-10-11T17:46:40.759Z,5.65
2022-10-11T17:49:08.296Z,5.30
2022-10-11T17:51:37.997Z,5.22
2022-10-11T17:54:05.187Z,5.53
2022-10-11T17:56:36.617Z,5.38
2022-10-11T17:59:04.002Z,5.30
2022-10-11T18:01:30.274Z,5.40
2022-10-11T18:04:02.050Z,5.80
2022-10-11T18:06:32.147Z,5.30
2022-10-11T18:09:03.495Z,5.15
2022-10-11T18:11:31.358Z,5.20
2022-10-11T18:13:57.622Z,5.22
2022-10-11T18:16:27.122Z,5.50
2022-10-11T18:18:53.706Z,5.30
2022-10-11T18:21:19.806Z,5.50
2022-10-11T18:23:46.675Z,5.38
2022-10-11T18:26:21.274Z,4.78
2022-10-11T18:28:48.617Z,5.17
2022-10-11T18:31:19.143Z,5.22
2022-10-11T18:33:46.156Z,5.25
2022-10-11T18:36:14.845Z,5.25
2022-10-11T18:38:46.222Z,5.95
2022-10-11T18:41:14.792Z,5.47
2022-10-11T18:43:41.680Z,5.28
2022-10-11T18:46:08.882Z,5.82
2022-10-11T18:48:35.090Z,7.20
2022-10-11T18:51:04.225Z,6.25
2022-10-11T18:53:31.879Z,6.40
2022-10-11T18:56:00.131Z,6.90
2022-10-11T18:58:26.258Z,6.90
2022-10-11T19:00:52.441Z,6.20
2022-10-11T19:03:18.626Z,6.82
2022-10-11T19:05:44.729Z,7.78
2022-10-11T19:08:11.011Z,6.93
2022-10-11T19:10:37.116Z,6.82
2022-10-11T19:13:03.242Z,7.22
2022-10-11T19:15:29.353Z,6.88
2022-10-11T19:17:55.514Z,6.65
2022-10-11T19:20:21.934Z,6.80
2022-10-11T19:22:48.038Z,6.93
2022-10-11T19:25:14.233Z,7.25
2022-10-11T19:27:40.355Z,7.53
2022-10-11T19:30:07.089Z,6.85
2022-10-11T19:32:33.211Z,7.45
2022-10-11T19:34:59.318Z,7.60
2022-10-11T19:37:26.589Z,7.43
2022-10-11T19:39:52.801Z,8.70
2022-10-11T19:42:19.120Z,9.32
2022-10-11T19:44:45.353Z,10.00
2022-10-11T19:47:11.450Z,9.50
2022-10-11T19:49:37.562Z,11.63
2022-10-11T19:52:03.665Z,10.93
2022-10-11T19:54:29.894Z,11.50
2022-10-11T19:56:56.107Z,11.70
2022-10-11T19:59:22.267Z,11.38
2022-10-11T20:01:52.679Z,11.05
2022-10-11T20:04:39.961Z,10.48
2022-10-11T20:07:05.606Z,10.73
2022-10-11T20:09:31.757Z,11.70
2022-10-11T20:11:58.310Z,11.15
2022-10-11T20:14:24.692Z,12.00
2022-10-11T20:16:51.310Z,11.57
2022-10-11T20:19:17.918Z,11.88
2022-10-11T20:21:45.006Z,10.68
2022-10-11T20:24:11.162Z,10.70
2022-10-11T20:26:37.481Z,10.57
2022-10-11T20:29:03.640Z,11.68
2022-10-11T20:31:33.146Z,10.98
2022-10-11T20:34:02.436Z,11.63
2022-10-11T20:36:30.215Z,11.68
2022-10-11T20:38:57.983Z,11.43
2022-10-11T20:41:31.659Z,11.55
2022-10-11T20:43:59.588Z,11.68
2022-10-11T20:46:28.544Z,12.25
2022-10-11T20:49:01.307Z,11.10
2022-10-11T20:51:29.315Z,12.60
2022-10-11T20:53:56.470Z,11.73
2022-10-11T20:56:22.809Z,11.43
2022-10-11T20:58:54.186Z,12.98
2022-10-11T21:01:22.926Z,11.15
2022-10-11T21:03:49.234Z,11.73
2022-10-11T21:06:15.349Z,11.77
2022-10-11T21:08:41.497Z,12.77
2022-10-11T21:11:08.884Z,11.90
2022-10-11T21:13:35.027Z,11.38
2022-10-11T21:16:10.918Z,11.48
2022-10-11T21:18:37.441Z,11.75
2022-10-11T21:21:08.690Z,12.32
2022-10-11T21:23:35.273Z,12.23
2022-10-11T21:26:06.714Z,11.75
2022-10-11T21:28:33.439Z,11.30
2022-10-11T21:31:07.225Z,11.80
2022-10-11T21:33:33.591Z,11.65
2022-10-11T21:36:02.678Z,10.88
2022-10-11T21:38:28.857Z,11.85
2022-10-11T21:40:54.972Z,12.57
2022-10-11T21:43:21.100Z,11.48
2022-10-11T21:45:47.218Z,11.10
2022-10-11T21:48:13.318Z,10.27
2022-10-11T21:50:39.427Z,10.88
2022-10-11T21:53:05.527Z,11.68
2022-10-11T21:55:31.642Z,10.90
2022-10-11T21:57:57.750Z,11.43
2022-10-11T22:00:25.188Z,10.02
2022-10-11T22:02:52.210Z,10.93
2022-10-11T22:05:18.820Z,9.90
2022-10-11T22:07:45.579Z,9.07
2022-10-11T22:10:11.680Z,11.20
2022-10-11T22:12:38.220Z,8.95
2022-10-11T22:15:04.831Z,9.32
2022-10-11T22:17:30.935Z,7.50
2022-10-11T22:19:57.055Z,6.43
2022-10-11T22:22:23.151Z,6.35
2022-10-11T22:24:49.262Z,7.70
2022-10-11T22:27:15.358Z,7.43
2022-10-11T22:29:41.458Z,9.43
2022-10-11T22:32:07.703Z,8.25
2022-10-11T22:34:33.902Z,7.93
2022-10-11T22:37:00.006Z,7.03
2022-10-11T22:39:26.130Z,6.13
2022-10-11T22:41:53.765Z,6.43
2022-10-11T22:44:19.873Z,7.63
2022-10-11T22:46:46.494Z,7.00
2022-10-11T22:49:12.946Z,6.28
2022-10-11T22:51:39.045Z,6.40
2022-10-11T22:54:05.179Z,6.78
2022-10-11T22:56:31.281Z,6.95
2022-10-11T22:58:58.720Z,6.30
2022-10-11T23:01:24.818Z,6.22
2022-10-11T23:03:50.989Z,6.75
2022-10-11T23:06:17.680Z,8.70
2022-10-11T23:08:44.502Z,6.72
2022-10-11T23:11:11.348Z,6.10
2022-10-11T23:13:37.473Z,7.03
2022-10-11T23:16:11.393Z,7.15
2022-10-11T23:18:37.709Z,6.70
2022-10-11T23:21:05.205Z,6.60
2022-10-11T23:23:31.846Z,6.70
2022-10-11T23:26:02.818Z,6.45
2022-10-11T23:28:28.933Z,5.97
2022-10-11T23:30:55.033Z,6.30
2022-10-11T23:33:21.137Z,6.65
2022-10-11T23:35:47.232Z,6.68
2022-10-11T23:38:13.342Z,6.63
2022-10-11T23:40:39.621Z,5.63
2022-10-11T23:43:05.774Z,6.35
2022-10-11T23:45:31.877Z,6.78
2022-10-11T23:47:57.998Z,6.72
2022-10-11T23:50:24.190Z,6.28
2022-10-11T23:52:50.415Z,6.97
2022-10-11T23:55:16.685Z,6.25
2022-10-11T23:57:42.802Z,6.22
